createdAt,value
2022-12-22T00:00:43.264Z,3.75
2022-12-22T00:02:06.052Z,2.47
2022-12-22T00:03:32.184Z,3.33
2022-12-22T00:04:52.411Z,3.30
2022-12-22T00:06:12.536Z,2.40
2022-12-22T00:07:32.617Z,2.90
2022-12-22T00:08:53.958Z,3.40
2022-12-22T00:10:13.990Z,3.20
2022-12-22T00:11:34.215Z,3.22
2022-12-22T00:12:54.936Z,2.70
2022-12-22T00:14:15.609Z,2.13
2022-12-22T00:15:36.870Z,3.00
2022-12-22T00:16:57.564Z,2.97
2022-12-22T00:18:18.303Z,2.90
2022-12-22T00:19:39.011Z,2.58
2022-12-22T00:20:59.137Z,2.67
2022-12-22T00:22:20.223Z,2.50
2022-12-22T00:25:02.051Z,2.90
2022-12-22T00:26:25.301Z,3.53
2022-12-22T00:27:48.544Z,2.83
2022-12-22T00:29:08.570Z,3.60
2022-12-22T00:30:31.892Z,3.87
2022-12-22T00:31:51.955Z,4.20
2022-12-22T00:33:12.472Z,3.40
2022-12-22T00:34:35.666Z,3.58
2022-12-22T00:35:55.973Z,3.65
2022-12-22T00:37:16.090Z,2.58
2022-12-22T00:38:38.935Z,3.33
2022-12-22T00:39:59.245Z,3.60
2022-12-22T00:41:20.971Z,3.65
2022-12-22T00:42:40.822Z,3.60
2022-12-22T00:44:00.670Z,3.55
2022-12-22T00:45:20.409Z,4.07
2022-12-22T00:46:40.407Z,4.70
2022-12-22T00:48:02.101Z,3.83
2022-12-22T00:49:22.287Z,5.10
2022-12-22T00:50:48.350Z,3.80
2022-12-22T00:52:08.611Z,4.88
2022-12-22T00:53:28.665Z,4.57
2022-12-22T00:54:48.965Z,4.80
2022-12-22T00:56:09.148Z,6.57
2022-12-22T00:57:35.202Z,5.15
2022-12-22T00:58:55.476Z,5.22
2022-12-22T01:00:16.292Z,5.00
2022-12-22T01:01:36.807Z,4.25
2022-12-22T01:02:56.874Z,5.20
2022-12-22T01:04:17.056Z,5.47
2022-12-22T01:05:37.343Z,4.63
2022-12-22T01:06:57.364Z,4.88
2022-12-22T01:08:20.455Z,4.50
2022-12-22T01:09:41.841Z,5.10
2022-12-22T01:11:04.318Z,4.43
2022-12-22T01:12:29.932Z,4.70
2022-12-22T01:13:51.607Z,4.68
2022-12-22T01:15:11.514Z,4.40
2022-12-22T01:16:32.202Z,4.65
2022-12-22T01:17:52.357Z,3.90
2022-12-22T01:19:12.678Z,4.05
2022-12-22T01:20:33.014Z,4.90
2022-12-22T01:21:53.693Z,4.63
2022-12-22T01:23:14.048Z,4.90
2022-12-22T01:24:36.397Z,4.32
2022-12-22T01:25:56.523Z,4.82
2022-12-22T01:27:16.534Z,4.43
2022-12-22T01:28:36.241Z,4.53
2022-12-22T01:29:57.969Z,4.50
2022-12-22T01:31:34.527Z,4.55
2022-12-22T01:32:54.792Z,5.07
2022-12-22T01:34:14.957Z,5.22
2022-12-22T01:35:38.715Z,5.43
2022-12-22T01:36:59.039Z,5.15
2022-12-22T01:38:18.950Z,6.38
2022-12-22T01:39:38.819Z,5.85
2022-12-22T01:40:59.170Z,6.53
2022-12-22T01:42:19.555Z,6.40
2022-12-22T01:43:43.860Z,6.00
2022-12-22T01:45:05.561Z,6.75
2022-12-22T01:46:39.784Z,7.93
2022-12-22T01:48:02.859Z,5.85
2022-12-22T01:49:23.646Z,5.95
2022-12-22T01:50:47.508Z,4.35
2022-12-22T01:52:07.986Z,5.55
2022-12-22T01:53:33.330Z,5.20
2022-12-22T01:54:53.607Z,6.30
2022-12-22T01:56:14.983Z,5.90
2022-12-22T01:57:35.168Z,6.93
2022-12-22T01:59:00.037Z,4.65
2022-12-22T02:00:22.628Z,5.47
2022-12-22T02:01:43.111Z,5.70
2022-12-22T02:03:03.382Z,5.43
2022-12-22T02:04:24.618Z,5.68
2022-12-22T02:05:44.950Z,5.22
2022-12-22T02:07:07.992Z,4.93
2022-12-22T02:08:37.483Z,5.35
2022-12-22T02:10:08.474Z,5.25
2022-12-22T02:11:43.806Z,3.88
2022-12-22T02:13:12.505Z,5.20
2022-12-22T02:14:45.249Z,5.20
2022-12-22T02:16:11.435Z,4.82
2022-12-22T02:17:39.301Z,6.82
2022-12-22T02:19:05.555Z,4.55
2022-12-22T02:20:38.711Z,5.25
2022-12-22T02:22:06.830Z,4.95
2022-12-22T02:23:35.491Z,5.07
2022-12-22T02:25:00.502Z,5.68
2022-12-22T02:26:37.719Z,5.55
2022-12-22T02:27:59.975Z,5.22
2022-12-22T02:29:23.359Z,5.20
2022-12-22T02:30:45.160Z,5.45
2022-12-22T02:32:06.542Z,5.05
2022-12-22T02:33:27.664Z,5.40
2022-12-22T02:36:20.890Z,4.82
2022-12-22T02:37:50.368Z,4.72
2022-12-22T02:39:19.845Z,4.65
2022-12-22T02:40:49.965Z,4.68
2022-12-22T02:42:22.336Z,5.15
2022-12-22T02:43:58.356Z,4.35
2022-12-22T02:45:32.279Z,4.28
2022-12-22T02:46:59.639Z,4.07
2022-12-22T02:48:23.943Z,3.75
2022-12-22T02:49:48.796Z,3.38
2022-12-22T02:51:14.251Z,3.50
2022-12-22T02:52:38.560Z,3.75
2022-12-22T02:54:01.803Z,3.00
2022-12-22T02:55:23.014Z,3.95
2022-12-22T02:56:43.441Z,5.35
2022-12-22T02:58:04.757Z,3.38
2022-12-22T02:59:24.712Z,2.50
2022-12-22T03:00:44.755Z,1.92
2022-12-22T03:02:05.531Z,1.80
2022-12-22T03:03:28.578Z,1.25
2022-12-22T03:04:48.784Z,1.65
2022-12-22T03:06:09.200Z,1.60
2022-12-22T03:07:29.578Z,1.50
2022-12-22T03:08:49.952Z,1.00
2022-12-22T03:10:10.064Z,1.70
2022-12-22T03:11:30.084Z,1.80
2022-12-22T03:12:53.129Z,1.52
2022-12-22T03:14:14.503Z,1.80
2022-12-22T03:15:34.573Z,1.60
2022-12-22T03:16:54.395Z,1.20
2022-12-22T03:18:19.847Z,1.40
2022-12-22T03:19:39.727Z,0.82
2022-12-22T03:21:00.187Z,0.90
2022-12-22T03:22:19.972Z,2.38
2022-12-22T03:23:39.644Z,2.10
2022-12-22T03:24:59.933Z,2.95
2022-12-22T03:26:02.556Z,2.63
2022-12-22T03:27:04.134Z,2.50
2022-12-22T03:28:09.635Z,2.17
2022-12-22T03:29:12.573Z,1.67
2022-12-22T03:30:15.236Z,1.80
2022-12-22T03:31:17.031Z,1.98
2022-12-22T03:32:20.330Z,1.40
2022-12-22T03:33:22.131Z,0.82
2022-12-22T03:34:24.850Z,1.00
2022-12-22T03:35:29.079Z,1.10
2022-12-22T03:36:31.643Z,1.10
2022-12-22T03:37:33.162Z,0.90
2022-12-22T03:38:35.617Z,0.90
2022-12-22T03:39:37.137Z,0.80
2022-12-22T03:40:39.584Z,0.88
2022-12-22T03:41:59.816Z,0.93
2022-12-22T03:43:19.742Z,1.00
2022-12-22T03:44:41.416Z,1.15
2022-12-22T03:46:03.732Z,1.02
2022-12-22T03:47:11.448Z,1.00
2022-12-22T03:48:13.067Z,0.85
2022-12-22T03:49:15.500Z,0.82
2022-12-22T03:50:20.365Z,1.00
2022-12-22T03:51:22.884Z,1.10
2022-12-22T03:52:24.434Z,1.20
2022-12-22T03:53:26.941Z,1.70
2022-12-22T03:54:28.469Z,1.27
2022-12-22T03:55:31.093Z,1.10
2022-12-22T03:56:33.027Z,1.00
2022-12-22T03:57:35.669Z,1.20
2022-12-22T03:58:37.158Z,1.25
2022-12-22T03:59:41.070Z,1.75
2022-12-22T04:00:42.656Z,2.10
2022-12-22T04:01:47.849Z,2.10
2022-12-22T04:02:49.652Z,1.98
2022-12-22T04:03:52.144Z,2.15
2022-12-22T04:04:53.667Z,3.50
2022-12-22T04:05:56.179Z,4.00
2022-12-22T04:06:57.807Z,3.67
2022-12-22T04:08:00.275Z,2.22
2022-12-22T04:09:02.000Z,1.75
2022-12-22T04:10:25.794Z,1.10
2022-12-22T04:11:45.865Z,1.20
2022-12-22T04:12:57.082Z,1.23
2022-12-22T04:13:58.837Z,2.05
2022-12-22T04:15:02.677Z,2.03
2022-12-22T04:16:04.580Z,1.15
2022-12-22T04:17:08.337Z,1.25
2022-12-22T04:18:09.874Z,0.90
2022-12-22T04:19:12.516Z,1.10
2022-12-22T04:20:14.225Z,0.90
2022-12-22T04:21:17.099Z,1.05
2022-12-22T04:22:19.534Z,0.90
2022-12-22T04:23:21.014Z,0.80
2022-12-22T04:24:23.450Z,1.08
2022-12-22T04:25:28.507Z,1.00
2022-12-22T04:26:31.420Z,1.02
2022-12-22T04:27:33.208Z,1.40
2022-12-22T04:28:35.717Z,1.50
2022-12-22T04:29:37.242Z,1.33
2022-12-22T04:30:41.033Z,1.30
2022-12-22T04:31:43.858Z,1.33
2022-12-22T04:32:46.389Z,1.40
2022-12-22T04:33:48.041Z,1.30
2022-12-22T04:34:50.429Z,1.00
2022-12-22T04:35:54.004Z,1.25
2022-12-22T04:37:02.341Z,1.10
2022-12-22T04:38:08.776Z,1.10
2022-12-22T04:39:11.314Z,0.90
2022-12-22T04:40:13.372Z,1.15
2022-12-22T04:41:16.169Z,0.85
2022-12-22T04:42:17.711Z,0.82
2022-12-22T04:43:21.927Z,0.80
2022-12-22T04:44:23.361Z,0.90
2022-12-22T04:45:25.893Z,0.85
2022-12-22T04:46:28.849Z,1.10
2022-12-22T04:47:31.267Z,1.08
2022-12-22T04:48:35.653Z,1.20
2022-12-22T04:49:38.121Z,0.70
2022-12-22T04:50:39.660Z,0.90
2022-12-22T04:51:42.198Z,0.88
2022-12-22T04:52:43.706Z,0.75
2022-12-22T04:53:47.716Z,0.68
2022-12-22T04:54:49.242Z,0.70
2022-12-22T04:55:56.275Z,0.68
2022-12-22T04:56:57.855Z,0.90
2022-12-22T04:58:00.353Z,0.80
2022-12-22T04:59:04.621Z,0.88
2022-12-22T05:00:08.651Z,0.90
2022-12-22T05:01:12.462Z,0.80
2022-12-22T05:02:16.286Z,0.70
2022-12-22T05:03:17.911Z,0.75
2022-12-22T05:04:23.825Z,0.50
2022-12-22T05:05:25.627Z,0.60
2022-12-22T05:06:28.200Z,0.80
2022-12-22T05:07:29.732Z,0.88
2022-12-22T05:08:32.242Z,0.73
2022-12-22T05:09:34.312Z,0.70
2022-12-22T05:10:36.891Z,0.88
2022-12-22T05:11:38.451Z,0.80
2022-12-22T05:12:57.972Z,0.68
2022-12-22T05:14:06.786Z,0.63
2022-12-22T05:15:09.435Z,0.70
2022-12-22T05:16:14.054Z,0.65
2022-12-22T05:17:19.998Z,0.47
2022-12-22T05:18:25.549Z,0.70
2022-12-22T05:19:30.712Z,0.98
2022-12-22T05:20:35.998Z,0.70
2022-12-22T05:21:40.516Z,0.90
2022-12-22T05:22:42.979Z,0.50
2022-12-22T05:23:45.236Z,0.82
2022-12-22T05:24:47.695Z,0.70
2022-12-22T05:25:49.211Z,0.70
2022-12-22T05:26:51.615Z,0.60
2022-12-22T05:27:53.150Z,0.65
2022-12-22T05:28:55.639Z,0.90
2022-12-22T05:29:57.110Z,0.70
2022-12-22T05:31:05.185Z,0.90
2022-12-22T05:32:06.727Z,0.80
2022-12-22T05:33:10.480Z,0.60
2022-12-22T05:34:12.015Z,0.50
2022-12-22T05:35:14.729Z,0.73
2022-12-22T05:36:17.869Z,0.50
2022-12-22T05:37:20.282Z,0.63
2022-12-22T05:38:21.785Z,0.70
2022-12-22T05:39:24.215Z,0.60
2022-12-22T05:40:25.704Z,1.13
2022-12-22T05:41:28.127Z,0.68
2022-12-22T05:42:38.507Z,0.75
2022-12-22T05:43:41.088Z,0.60
2022-12-22T05:44:42.589Z,0.68
2022-12-22T05:45:48.029Z,0.50
2022-12-22T05:46:50.544Z,0.52
2022-12-22T05:47:53.953Z,0.60
2022-12-22T05:48:56.885Z,0.80
2022-12-22T05:49:59.346Z,0.60
2022-12-22T05:51:03.935Z,0.50
2022-12-22T05:52:06.344Z,0.80
2022-12-22T05:53:08.398Z,0.60
2022-12-22T05:54:10.998Z,0.70
2022-12-22T05:55:13.853Z,0.63
2022-12-22T05:56:17.949Z,0.63
2022-12-22T05:57:19.430Z,0.70
2022-12-22T05:58:22.128Z,0.55
2022-12-22T05:59:24.536Z,0.50
2022-12-22T06:00:26.218Z,0.80
2022-12-22T06:01:28.783Z,0.70
2022-12-22T06:02:30.420Z,0.63
2022-12-22T06:03:33.057Z,0.60
2022-12-22T06:04:35.922Z,0.60
2022-12-22T06:05:38.351Z,0.50
2022-12-22T06:06:41.892Z,0.50
2022-12-22T06:07:44.406Z,0.60
2022-12-22T06:08:45.896Z,0.55
2022-12-22T06:09:48.485Z,0.70
2022-12-22T06:10:49.985Z,0.63
2022-12-22T06:11:52.439Z,0.50
2022-12-22T06:12:53.959Z,0.50
2022-12-22T06:13:56.485Z,0.63
2022-12-22T06:14:58.007Z,0.60
2022-12-22T06:16:02.191Z,0.60
2022-12-22T06:17:03.734Z,0.60
2022-12-22T06:18:06.252Z,1.13
2022-12-22T06:19:07.724Z,2.70
2022-12-22T06:20:12.924Z,18.15
2022-12-22T06:21:20.106Z,16.48
2022-12-22T06:22:22.545Z,17.60
2022-12-22T06:23:24.061Z,16.35
2022-12-22T06:24:26.560Z,20.15
2022-12-22T06:25:28.980Z,6.93
2022-12-22T06:26:31.557Z,7.57
2022-12-22T06:27:34.004Z,3.83
2022-12-22T06:28:35.491Z,1.23
2022-12-22T06:29:38.134Z,1.45
2022-12-22T06:30:42.311Z,0.98
2022-12-22T06:31:45.017Z,1.10
2022-12-22T06:32:46.585Z,1.02
2022-12-22T06:33:49.059Z,0.70
2022-12-22T06:34:50.776Z,0.63
2022-12-22T06:35:58.954Z,0.73
2022-12-22T06:37:00.981Z,0.60
2022-12-22T06:38:03.455Z,0.68
2022-12-22T06:39:05.121Z,0.80
2022-12-22T06:40:09.430Z,0.85
2022-12-22T06:41:10.981Z,0.68
2022-12-22T06:42:31.393Z,0.65
2022-12-22T06:43:33.798Z,0.73
2022-12-22T06:44:35.265Z,0.63
2022-12-22T06:45:39.234Z,0.60
2022-12-22T06:46:40.791Z,0.60
2022-12-22T06:47:43.270Z,0.70
2022-12-22T06:48:44.836Z,0.60
2022-12-22T06:49:47.221Z,0.80
2022-12-22T06:50:48.961Z,0.70
2022-12-22T06:51:52.701Z,0.70
2022-12-22T06:52:54.213Z,0.70
2022-12-22T06:53:56.640Z,0.63
2022-12-22T06:54:58.104Z,0.60
2022-12-22T06:56:00.557Z,0.52
2022-12-22T06:57:02.118Z,0.70
2022-12-22T06:58:04.843Z,0.55
2022-12-22T06:59:07.377Z,0.50
2022-12-22T07:00:13.097Z,0.50
2022-12-22T07:01:15.611Z,0.55
2022-12-22T07:02:17.387Z,0.70
2022-12-22T07:03:20.188Z,0.88
2022-12-22T07:04:21.907Z,0.80
2022-12-22T07:05:24.917Z,1.25
2022-12-22T07:06:26.425Z,0.70
2022-12-22T07:07:30.206Z,0.70
2022-12-22T07:08:32.634Z,0.60
2022-12-22T07:09:34.168Z,0.50
2022-12-22T07:10:54.507Z,0.70
2022-12-22T07:11:56.998Z,0.82
2022-12-22T07:13:18.541Z,0.70
2022-12-22T07:14:20.966Z,0.75
2022-12-22T07:15:22.556Z,0.70
2022-12-22T07:16:25.159Z,0.60
2022-12-22T07:17:26.749Z,0.55
2022-12-22T07:18:30.521Z,0.50
2022-12-22T07:19:32.149Z,0.60
2022-12-22T07:20:34.695Z,0.45
2022-12-22T07:21:37.195Z,0.60
2022-12-22T07:22:40.068Z,0.50
2022-12-22T07:23:42.927Z,0.50
2022-12-22T07:24:44.533Z,0.60
2022-12-22T07:25:47.101Z,0.60
2022-12-22T07:26:49.685Z,0.52
2022-12-22T07:27:54.088Z,0.70
2022-12-22T07:28:56.644Z,0.80
2022-12-22T07:29:58.272Z,0.55
2022-12-22T07:31:03.827Z,0.60
2022-12-22T07:32:06.744Z,0.95
2022-12-22T07:33:08.505Z,0.60
2022-12-22T07:34:11.123Z,0.63
2022-12-22T07:35:12.734Z,0.90
2022-12-22T07:36:18.938Z,0.68
2022-12-22T07:37:20.469Z,0.85
2022-12-22T07:38:24.419Z,0.85
2022-12-22T07:39:27.040Z,1.60
2022-12-22T07:40:28.777Z,0.60
2022-12-22T07:41:48.913Z,0.60
2022-12-22T07:42:51.524Z,0.70
2022-12-22T07:43:53.543Z,0.70
2022-12-22T07:44:56.133Z,0.52
2022-12-22T07:45:59.403Z,0.75
2022-12-22T07:47:04.678Z,0.82
2022-12-22T07:48:26.409Z,0.65
2022-12-22T07:49:46.410Z,0.80
2022-12-22T07:50:49.020Z,1.02
2022-12-22T07:51:52.200Z,0.85
2022-12-22T07:52:56.130Z,1.00
2022-12-22T07:53:59.055Z,0.98
2022-12-22T07:55:01.604Z,0.70
2022-12-22T07:56:04.648Z,0.93
2022-12-22T07:57:07.145Z,1.08
2022-12-22T07:58:08.767Z,1.08
2022-12-22T07:59:11.764Z,1.13
2022-12-22T08:00:16.094Z,1.00
2022-12-22T08:01:18.700Z,0.95
2022-12-22T08:02:21.503Z,1.05
2022-12-22T08:03:23.372Z,1.00
2022-12-22T08:04:26.119Z,0.75
2022-12-22T08:05:28.612Z,0.90
2022-12-22T08:06:32.713Z,0.90
2022-12-22T08:07:35.321Z,1.00
2022-12-22T08:08:37.013Z,1.23
2022-12-22T08:09:40.948Z,1.10
2022-12-22T08:10:45.615Z,1.10
2022-12-22T08:11:49.158Z,1.02
2022-12-22T08:12:51.929Z,1.10
2022-12-22T08:14:00.845Z,1.20
2022-12-22T08:15:04.039Z,1.23
2022-12-22T08:16:09.049Z,1.25
2022-12-22T08:17:11.698Z,1.55
2022-12-22T08:18:13.322Z,1.15
2022-12-22T08:19:16.029Z,1.23
2022-12-22T08:20:17.555Z,0.77
2022-12-22T08:21:20.069Z,1.80
2022-12-22T08:22:23.889Z,1.60
2022-12-22T08:23:26.434Z,1.20
2022-12-22T08:24:28.909Z,1.20
2022-12-22T08:25:33.439Z,1.45
2022-12-22T08:26:39.460Z,1.33
2022-12-22T08:27:45.006Z,1.40
2022-12-22T08:28:52.786Z,1.02
2022-12-22T08:29:58.158Z,1.20
2022-12-22T08:31:01.621Z,1.20
2022-12-22T08:32:14.229Z,1.35
2022-12-22T08:33:18.014Z,1.10
2022-12-22T08:34:20.591Z,1.40
2022-12-22T08:35:22.587Z,1.10
2022-12-22T08:36:25.718Z,1.02
2022-12-22T08:37:32.580Z,1.33
2022-12-22T08:38:34.964Z,1.30
2022-12-22T08:39:40.220Z,1.00
2022-12-22T08:40:46.263Z,1.30
2022-12-22T08:41:50.985Z,1.10
2022-12-22T08:42:56.845Z,1.45
2022-12-22T08:44:01.262Z,1.45
2022-12-22T08:45:04.273Z,0.95
2022-12-22T08:46:07.107Z,1.20
2022-12-22T08:47:14.814Z,1.25
2022-12-22T08:48:19.206Z,1.25
2022-12-22T08:49:20.789Z,1.00
2022-12-22T08:50:23.482Z,1.02
2022-12-22T08:51:25.096Z,1.05
2022-12-22T08:52:29.903Z,1.20
2022-12-22T08:54:14.333Z,1.13
2022-12-22T08:54:55.011Z,0.90
2022-12-22T08:55:58.912Z,1.05
2022-12-22T08:57:00.497Z,0.93
2022-12-22T08:58:03.017Z,0.98
2022-12-22T08:59:07.655Z,1.02
2022-12-22T09:00:13.287Z,1.05
2022-12-22T09:01:19.042Z,0.90
2022-12-22T09:02:22.255Z,1.20
2022-12-22T09:03:24.115Z,2.55
2022-12-22T09:04:28.360Z,1.15
2022-12-22T09:05:31.963Z,0.80
2022-12-22T09:06:41.151Z,1.00
2022-12-22T09:07:47.096Z,1.00
2022-12-22T09:08:48.880Z,0.90
2022-12-22T09:09:51.402Z,0.95
2022-12-22T09:10:52.987Z,0.90
2022-12-22T09:11:59.278Z,0.82
2022-12-22T09:13:00.915Z,0.60
2022-12-22T09:14:04.009Z,0.80
2022-12-22T09:15:08.849Z,0.73
2022-12-22T09:16:10.669Z,0.70
2022-12-22T09:17:13.439Z,0.68
2022-12-22T09:18:15.215Z,0.57
2022-12-22T09:19:18.354Z,0.57
2022-12-22T09:20:20.952Z,0.50
2022-12-22T09:21:24.634Z,0.65
2022-12-22T09:22:28.223Z,0.70
2022-12-22T09:23:31.427Z,0.60
2022-12-22T09:24:34.099Z,0.50
2022-12-22T09:25:35.675Z,0.45
2022-12-22T09:26:38.390Z,0.50
2022-12-22T09:27:41.458Z,0.57
2022-12-22T09:28:49.928Z,0.50
2022-12-22T09:29:53.914Z,0.77
2022-12-22T09:30:58.183Z,0.50
2022-12-22T09:32:00.696Z,0.50
2022-12-22T09:33:03.219Z,0.60
2022-12-22T09:34:05.007Z,0.60
2022-12-22T09:35:11.113Z,0.50
2022-12-22T09:36:14.631Z,0.60
2022-12-22T09:37:17.858Z,0.55
2022-12-22T09:38:20.920Z,0.50
2022-12-22T09:39:29.038Z,0.57
2022-12-22T09:40:32.919Z,0.50
2022-12-22T09:41:37.342Z,0.45
2022-12-22T09:42:39.887Z,0.40
2022-12-22T09:43:43.247Z,0.35
2022-12-22T09:44:48.038Z,0.50
2022-12-22T09:45:51.441Z,0.40
2022-12-22T09:46:56.193Z,0.50
2022-12-22T09:47:57.681Z,0.60
2022-12-22T09:49:00.208Z,0.50
2022-12-22T09:50:03.983Z,0.50
2022-12-22T09:51:12.453Z,0.40
2022-12-22T09:52:24.798Z,0.30
2022-12-22T09:53:27.275Z,0.43
2022-12-22T09:54:30.855Z,0.40
2022-12-22T09:55:41.099Z,0.50
2022-12-22T09:56:43.860Z,0.50
2022-12-22T09:57:46.363Z,0.40
2022-12-22T09:58:50.285Z,0.43
2022-12-22T09:59:53.132Z,0.40
2022-12-22T10:01:03.544Z,0.30
2022-12-22T10:02:18.295Z,0.30
2022-12-22T10:03:32.480Z,0.45
2022-12-22T10:04:53.342Z,0.30
2022-12-22T10:06:04.760Z,0.40
2022-12-22T10:07:20.375Z,0.47
2022-12-22T10:08:29.261Z,0.50
2022-12-22T10:09:49.774Z,0.40
2022-12-22T10:10:54.512Z,0.57
2022-12-22T10:11:58.241Z,0.40
2022-12-22T10:13:02.457Z,0.50
2022-12-22T10:14:06.303Z,0.50
2022-12-22T10:15:11.196Z,0.40
2022-12-22T10:16:20.755Z,0.32
2022-12-22T10:17:28.122Z,0.40
2022-12-22T10:18:30.961Z,0.40
2022-12-22T10:19:32.441Z,0.50
2022-12-22T10:20:35.061Z,0.35
2022-12-22T10:21:41.095Z,0.50
2022-12-22T10:22:50.559Z,0.50
2022-12-22T10:23:53.230Z,0.60
2022-12-22T10:24:55.967Z,0.60
2022-12-22T10:27:32.783Z,1.20
2022-12-22T10:28:39.067Z,7.10
2022-12-22T10:29:42.892Z,1.10
2022-12-22T10:30:45.433Z,0.75
2022-12-22T10:32:00.605Z,0.40
2022-12-22T10:33:04.740Z,0.63
2022-12-22T10:34:15.871Z,0.40
2022-12-22T10:35:17.674Z,0.50
2022-12-22T10:36:24.923Z,0.40
2022-12-22T10:37:38.086Z,0.40
2022-12-22T10:38:54.191Z,0.40
2022-12-22T10:39:56.966Z,0.30
2022-12-22T10:41:03.596Z,0.57
2022-12-22T10:42:13.334Z,0.50
2022-12-22T10:43:21.249Z,0.68
2022-12-22T10:44:27.505Z,0.50
2022-12-22T10:45:30.496Z,0.50
2022-12-22T10:46:37.760Z,0.40
2022-12-22T10:47:47.884Z,0.30
2022-12-22T10:48:50.563Z,0.40
2022-12-22T10:50:59.967Z,0.40
2022-12-22T10:52:13.305Z,0.50
2022-12-22T10:53:15.208Z,0.50
2022-12-22T10:54:30.263Z,0.50
2022-12-22T10:55:35.813Z,0.38
2022-12-22T10:56:37.544Z,0.38
2022-12-22T10:57:40.055Z,0.38
2022-12-22T10:58:48.647Z,0.40
2022-12-22T10:59:52.990Z,0.30
2022-12-22T11:01:05.090Z,0.32
2022-12-22T11:02:29.247Z,0.30
2022-12-22T11:03:32.988Z,0.30
2022-12-22T11:04:35.588Z,0.30
2022-12-22T11:05:38.148Z,0.40
2022-12-22T11:06:40.670Z,0.40
2022-12-22T11:07:47.911Z,0.30
2022-12-22T11:08:51.888Z,0.20
2022-12-22T11:09:54.545Z,0.30
2022-12-22T11:11:01.976Z,0.30
2022-12-22T11:12:14.308Z,0.40
2022-12-22T11:13:42.057Z,0.32
2022-12-22T11:14:52.998Z,0.35
2022-12-22T11:16:03.561Z,0.40
2022-12-22T11:17:13.498Z,0.25
2022-12-22T11:18:33.681Z,0.40
2022-12-22T11:19:48.159Z,0.55
2022-12-22T11:21:00.009Z,0.40
2022-12-22T11:22:13.001Z,0.30
2022-12-22T11:23:26.720Z,0.50
2022-12-22T11:24:39.665Z,0.50
2022-12-22T11:25:52.415Z,0.50
2022-12-22T11:27:05.138Z,0.32
2022-12-22T11:28:20.263Z,0.30
2022-12-22T11:29:52.985Z,0.20
2022-12-22T11:31:07.074Z,0.30
2022-12-22T11:32:27.986Z,0.10
2022-12-22T11:33:41.198Z,0.30
2022-12-22T11:34:56.737Z,0.30
2022-12-22T11:36:04.882Z,0.10
2022-12-22T11:37:15.592Z,0.30
2022-12-22T11:38:28.414Z,0.20
2022-12-22T11:39:41.304Z,0.17
2022-12-22T11:40:48.271Z,0.13
2022-12-22T11:42:03.697Z,0.30
2022-12-22T11:43:22.469Z,0.20
2022-12-22T11:44:48.364Z,0.20
2022-12-22T11:45:59.516Z,0.30
2022-12-22T11:47:08.202Z,0.20
2022-12-22T11:48:33.011Z,0.40
2022-12-22T11:50:00.872Z,0.30
2022-12-22T11:51:33.044Z,0.40
2022-12-22T11:52:53.418Z,0.30
2022-12-22T11:54:25.552Z,0.30
2022-12-22T11:55:35.732Z,0.10
2022-12-22T11:56:40.472Z,0.32
2022-12-22T11:57:56.361Z,0.30
2022-12-22T11:59:17.674Z,0.30
2022-12-22T12:00:20.845Z,0.25
2022-12-22T12:01:40.913Z,0.35
2022-12-22T12:03:05.811Z,0.30
2022-12-22T12:04:28.085Z,0.20
2022-12-22T12:05:55.286Z,0.35
2022-12-22T12:07:25.167Z,0.20
2022-12-22T12:08:39.764Z,0.30
2022-12-22T12:09:52.408Z,0.50
2022-12-22T12:11:02.224Z,0.20
2022-12-22T12:12:12.850Z,0.30
2022-12-22T12:13:34.726Z,0.25
2022-12-22T12:14:48.335Z,0.30
2022-12-22T12:15:56.414Z,0.43
2022-12-22T12:17:00.835Z,0.30
2022-12-22T12:18:26.149Z,0.30
2022-12-22T12:19:54.698Z,0.30
2022-12-22T12:21:21.302Z,0.40
2022-12-22T12:22:37.469Z,0.30
2022-12-22T12:24:03.419Z,0.25
2022-12-22T12:25:26.038Z,0.20
2022-12-22T12:26:32.153Z,0.30
2022-12-22T12:27:48.748Z,0.20
2022-12-22T12:29:06.185Z,0.40
2022-12-22T12:31:43.699Z,0.30
2022-12-22T12:32:50.805Z,0.30
2022-12-22T12:33:56.070Z,0.25
2022-12-22T12:35:06.155Z,0.30
2022-12-22T12:36:16.019Z,0.30
2022-12-22T12:37:26.443Z,0.40
2022-12-22T12:39:06.945Z,0.30
2022-12-22T12:40:22.910Z,0.28
2022-12-22T12:41:31.955Z,0.13
2022-12-22T12:42:38.528Z,0.20
2022-12-22T12:43:41.490Z,0.40
2022-12-22T12:44:44.321Z,0.25
2022-12-22T12:45:48.901Z,0.30
2022-12-22T12:47:06.317Z,0.30
2022-12-22T12:48:41.882Z,0.20
2022-12-22T12:50:31.845Z,0.30
2022-12-22T12:51:50.785Z,0.30
2022-12-22T12:53:14.834Z,0.30
2022-12-22T12:54:44.516Z,0.38
2022-12-22T12:56:09.548Z,0.30
2022-12-22T12:57:24.219Z,0.30
2022-12-22T12:58:55.060Z,0.50
2022-12-22T12:59:58.910Z,0.32
2022-12-22T13:01:02.156Z,0.40
2022-12-22T13:02:04.774Z,0.32
2022-12-22T13:03:20.006Z,0.40
2022-12-22T13:05:11.324Z,0.40
2022-12-22T13:06:53.296Z,0.40
2022-12-22T13:08:17.126Z,0.90
2022-12-22T13:10:48.145Z,0.32
2022-12-22T13:12:11.665Z,0.40
2022-12-22T13:13:29.540Z,0.63
2022-12-22T13:14:57.452Z,0.40
2022-12-22T13:16:27.072Z,0.50
2022-12-22T13:17:42.706Z,0.40
2022-12-22T13:18:50.881Z,0.40
2022-12-22T13:19:54.973Z,0.50
2022-12-22T13:21:18.846Z,0.40
2022-12-22T13:22:23.660Z,0.35
2022-12-22T13:23:29.460Z,0.45
2022-12-22T13:24:37.840Z,0.30
2022-12-22T13:25:49.401Z,0.40
2022-12-22T13:26:54.596Z,0.40
2022-12-22T13:27:57.949Z,0.40
2022-12-22T13:29:02.754Z,0.40
2022-12-22T13:30:11.212Z,0.30
2022-12-22T13:31:19.847Z,0.50
2022-12-22T13:32:26.755Z,0.20
2022-12-22T13:33:33.344Z,0.50
2022-12-22T13:34:57.627Z,0.40
2022-12-22T13:36:02.164Z,0.40
2022-12-22T13:37:15.732Z,0.40
2022-12-22T13:38:34.368Z,0.40
2022-12-22T13:39:37.975Z,0.50
2022-12-22T13:40:43.262Z,0.50
2022-12-22T13:41:47.814Z,0.40
2022-12-22T13:42:52.983Z,0.55
2022-12-22T13:44:04.659Z,0.60
2022-12-22T13:45:12.960Z,0.60
2022-12-22T13:46:15.657Z,0.65
2022-12-22T13:47:17.236Z,0.60
2022-12-22T13:48:21.908Z,0.60
2022-12-22T13:50:06.535Z,0.70
2022-12-22T13:50:54.653Z,0.50
2022-12-22T13:52:00.254Z,0.50
2022-12-22T13:53:09.450Z,0.68
2022-12-22T13:54:17.032Z,0.93
2022-12-22T13:55:24.725Z,0.63
2022-12-22T13:56:36.665Z,0.40
2022-12-22T13:57:39.488Z,0.43
2022-12-22T13:58:45.847Z,0.50
2022-12-22T13:59:50.223Z,0.50
2022-12-22T14:01:02.732Z,0.57
2022-12-22T14:02:18.511Z,0.47
2022-12-22T14:03:50.081Z,0.45
2022-12-22T14:04:47.855Z,0.70
2022-12-22T14:05:54.299Z,0.63
2022-12-22T14:07:10.456Z,0.65
2022-12-22T14:08:13.357Z,0.40
2022-12-22T14:09:18.669Z,0.52
2022-12-22T14:10:27.832Z,0.65
2022-12-22T14:11:32.307Z,0.55
2022-12-22T14:12:43.664Z,0.60
2022-12-22T14:13:47.659Z,0.80
2022-12-22T14:14:51.607Z,0.82
2022-12-22T14:16:02.005Z,0.80
2022-12-22T14:17:05.470Z,0.57
2022-12-22T14:18:07.311Z,0.77
2022-12-22T14:19:12.575Z,0.60
2022-12-22T14:20:20.583Z,0.60
2022-12-22T14:21:22.190Z,0.80
2022-12-22T14:22:28.168Z,0.98
2022-12-22T14:23:34.931Z,1.02
2022-12-22T14:24:45.618Z,1.10
2022-12-22T14:25:49.690Z,0.85
2022-12-22T14:26:52.310Z,1.10
2022-12-22T14:27:56.378Z,0.80
2022-12-22T14:28:58.867Z,0.85
2022-12-22T14:30:03.412Z,0.80
2022-12-22T14:31:08.124Z,0.90
2022-12-22T14:32:13.558Z,1.27
2022-12-22T14:33:18.441Z,0.63
2022-12-22T14:34:29.068Z,0.75
2022-12-22T14:35:31.654Z,1.15
2022-12-22T14:36:40.680Z,0.95
2022-12-22T14:37:45.602Z,0.80
2022-12-22T14:38:50.192Z,0.77
2022-12-22T14:39:56.581Z,1.13
2022-12-22T14:40:59.065Z,1.02
2022-12-22T14:42:03.622Z,1.05
2022-12-22T14:43:08.123Z,1.00
2022-12-22T14:44:20.874Z,1.20
2022-12-22T14:45:24.244Z,1.08
2022-12-22T14:46:26.030Z,1.00
2022-12-22T14:47:28.659Z,0.82
2022-12-22T14:48:33.428Z,0.90
2022-12-22T14:49:36.562Z,0.80
2022-12-22T14:50:40.413Z,0.70
2022-12-22T14:51:42.514Z,0.98
2022-12-22T14:52:49.283Z,0.95
2022-12-22T14:53:55.501Z,0.80
2022-12-22T14:55:00.082Z,0.90
2022-12-22T14:56:02.011Z,0.70
2022-12-22T14:57:15.688Z,0.80
2022-12-22T14:58:22.033Z,0.80
2022-12-22T14:59:26.571Z,0.60
2022-12-22T15:00:33.270Z,0.90
2022-12-22T15:01:34.895Z,0.82
2022-12-22T15:02:40.627Z,0.80
2022-12-22T15:03:44.444Z,0.88
2022-12-22T15:04:46.228Z,0.80
2022-12-22T15:05:49.067Z,0.77
2022-12-22T15:06:50.887Z,0.90
2022-12-22T15:08:10.520Z,0.70
2022-12-22T15:10:12.640Z,0.90
2022-12-22T15:10:53.181Z,0.90
2022-12-22T15:12:02.039Z,0.93
2022-12-22T15:13:07.215Z,1.00
2022-12-22T15:14:12.219Z,0.90
2022-12-22T15:15:17.259Z,0.82
2022-12-22T15:16:22.271Z,0.93
2022-12-22T15:17:26.408Z,0.80
2022-12-22T15:18:29.548Z,0.70
2022-12-22T15:19:37.664Z,0.65
2022-12-22T15:20:39.892Z,0.90
2022-12-22T15:21:42.427Z,0.90
2022-12-22T15:22:44.817Z,0.85
2022-12-22T15:23:48.081Z,0.90
2022-12-22T15:24:50.545Z,0.70
2022-12-22T15:25:54.287Z,0.80
2022-12-22T15:26:56.175Z,0.73
2022-12-22T15:27:58.691Z,0.80
2022-12-22T15:29:00.203Z,0.90
2022-12-22T15:30:02.760Z,0.70
2022-12-22T15:31:12.735Z,0.60
2022-12-22T15:32:15.581Z,0.70
2022-12-22T15:33:19.250Z,0.70
2022-12-22T15:34:25.790Z,0.60
2022-12-22T15:35:31.226Z,1.05